Natividade, Brazil
Current Conditions -  °F | °C
As of 11:00 PM on Saturday 25 Oct 2014 (Local Time) from SBCP Reporting Station
Broken Clouds Broken Clouds  
Wind Chill: 75°   Ceiling: 9000
Heat Index: 75°   Visibility: 6mi
Dew Point: 72°   Wind: 9mph
Humidity: 89%   Direction: 70°ENE
Pressure: 29.94"   Gusts: NA
Location:  21.05°S, 41.99°W
Report Text: SBCP 260100Z 07008KT 9999 SCT010 BKN090 24/22 Q1014
Loading
Personal Weather Stations






























Interactive Weather Map
Tropical Storm Tracking
New forecast layout! Learn more

10-Day Weather Forecast

Advertisements
Track Severe Weather on mobile